Time;durP1;ratioP1;P1;durP2;ratioP2;P2;SDS_P1;SDS_P2;PMS_P1;PMS_P2;Temp;Humidity;BMP_temperature;BMP_pressure;BME280_temperature;BME280_humidity;BME280_pressure;Samples;Min_cycle;Max_cycle;Signal;HPM_P1;HPM_P2
2021/10/24 00:00:19;;;;;;;;;;;;;;;4.03;76.09;97919.25;30001;982;1885;-61
2021/10/24 00:00:50;;;;;;;;;;;;;;;4.01;75.99;97927.53;30001;982;1868;-61
2021/10/24 00:01:21;;;;;;;;;;;;;;;4.00;75.90;97922.41;30001;983;1876;-62
2021/10/24 00:01:52;;;;;;;;;;;;;;;3.97;76.03;97929.03;30001;983;1880;-62
2021/10/24 00:02:23;;;;;;;;;;;;;;;3.94;76.26;97924.12;30001;983;1871;-61
2021/10/24 00:02:57;;;;;;;;;;;;;;;3.90;76.29;97933.66;30001;983;1871;-61
2021/10/24 00:03:27;;;;;;;;;;;;;;;3.89;76.58;97925.84;30001;983;1885;-55
2021/10/24 00:04:00;;;;;;;;;;;;;;;3.87;76.82;97934.09;30001;983;1880;-62
2021/10/24 00:04:31;;;;;;;;;;;;;;;3.86;76.70;97932.47;30001;983;1885;-61
2021/10/24 00:05:03;;;;;;;;;;;;;;;3.85;76.93;97928.16;30001;983;1881;-62
2021/10/24 00:05:33;;;;;;;;;;;;;;;3.85;77.21;97933.50;30001;982;1885;-59
2021/10/24 00:06:04;;;;;;;;;;;;;;;3.84;77.11;97928.37;30001;982;1881;-62
2021/10/24 00:06:35;;;;;;;;;;;;;;;3.84;77.25;97934.56;30001;985;1885;-62
2021/10/24 00:07:06;;;;;;;;;;;;;;;3.85;77.45;97928.16;30001;982;1881;-61
2021/10/24 00:07:37;;;;;;;;;;;;;;;3.86;77.11;97931.66;30001;982;1872;-60
2021/10/24 00:08:07;;;;;;;;;;;;;;;3.86;77.55;97931.66;30001;982;1872;-62
2021/10/24 00:08:38;;;;;;;;;;;;;;;3.86;77.29;97929.78;30001;982;1885;-55
2021/10/24 00:09:09;;;;;;;;;;;;;;;3.85;77.26;97925.47;30001;983;1867;-62
2021/10/24 00:09:40;;;;;;;;;;;;;;;3.83;77.44;97927.53;30001;983;1863;-61
2021/10/24 00:10:11;;;;;;;;;;;;;;;3.82;77.12;97925.91;30001;983;1880;-61
2021/10/24 00:10:41;;;;;;;;;;;;;;;3.84;77.55;97934.56;30001;983;1885;-61
2021/10/24 00:11:12;;;;;;;;;;;;;;;3.85;77.46;97924.62;30001;983;1880;-61
2021/10/24 00:11:43;;;;;;;;;;;;;;;3.84;77.35;97923.00;30001;983;1885;-62
2021/10/24 00:12:14;;;;;;;;;;;;;;;3.84;77.30;97923.00;30001;983;1881;-61
2021/10/24 00:12:46;;;;;;;;;;;;;;;3.84;77.60;97926.50;30001;983;1885;-62
2021/10/24 00:13:17;;;;;;;;;;;;;;;3.84;77.40;97917.63;30001;982;1881;-61
2021/10/24 00:13:48;;;;;;;;;;;;;;;3.85;77.31;97920.09;30001;982;1885;-62
2021/10/24 00:14:19;;;;;;;;;;;;;;;3.84;77.68;97923.81;30001;982;1868;-61
2021/10/24 00:14:50;;;;;;;;;;;;;;;3.84;77.88;97923.81;30001;982;1876;-62
2021/10/24 00:15:20;;;;;;;;;;;;;;;3.84;77.60;97923.81;30001;982;1868;-62
2021/10/24 00:15:52;;;;;;;;;;;;;;;3.83;77.74;97922.19;30001;982;1877;-55
2021/10/24 00:16:22;;;;;;;;;;;;;;;3.83;77.64;97919.50;30001;982;1881;-61
2021/10/24 00:16:53;;;;;;;;;;;;;;;3.83;77.54;97922.19;30001;983;1884;-61
2021/10/24 00:17:24;;;;;;;;;;;;;;;3.83;77.28;97922.19;30001;983;1880;-62
2021/10/24 00:17:55;;;;;;;;;;;;;;;3.83;77.61;97922.19;30001;983;1871;-61
2021/10/24 00:18:26;;;;;;;;;;;;;;;3.82;77.52;97915.16;30001;983;1872;-61
2021/10/24 00:18:57;;;;;;;;;;;;;;;3.83;77.48;97918.66;30001;983;1872;-63
2021/10/24 00:19:28;;;;;;;;;;;;;;;3.83;77.46;97916.81;30001;983;1872;-61
2021/10/24 00:19:59;;;;;;;;;;;;;;;3.85;77.58;97912.03;30001;986;1885;-61
2021/10/24 00:20:30;;;;;;;;;;;;;;;3.85;77.16;97914.72;30001;983;1881;-61
2021/10/24 00:21:01;;;;;;;;;;;;;;;3.87;77.05;97917.19;30001;982;1885;-62
2021/10/24 00:21:32;;;;;;;;;;;;;;;3.87;77.08;97917.19;30001;982;1881;-63
2021/10/24 00:22:03;;;;;;;;;;;;;;;3.87;77.14;97915.31;30001;982;1885;-63
2021/10/24 00:22:34;;;;;;;;;;;;;;;3.88;76.99;97919.63;30001;982;1881;-62
2021/10/24 00:23:05;;;;;;;;;;;;;;;3.87;77.25;97922.56;30001;982;1885;-62
2021/10/24 00:23:35;;;;;;;;;;;;;;;3.86;77.36;97919.03;30001;982;1881;-62
2021/10/24 00:24:06;;;;;;;;;;;;;;;3.86;77.36;97921.72;30001;983;1871;-63
2021/10/24 00:24:37;;;;;;;;;;;;;;;3.87;77.31;97927.91;30001;983;1858;-61
2021/10/24 00:25:09;;;;;;;;;;;;;;;3.86;77.39;97921.72;30001;983;1885;-62
2021/10/24 00:25:40;;;;;;;;;;;;;;;3.85;77.07;97920.09;30001;983;1880;-63
2021/10/24 00:26:11;;;;;;;;;;;;;;;3.83;77.05;97922.19;30001;983;1885;-63
2021/10/24 00:26:42;;;;;;;;;;;;;;;3.83;77.29;97922.19;30001;983;1880;-62
2021/10/24 00:27:13;;;;;;;;;;;;;;;3.83;77.57;97919.50;30001;983;1885;-61
2021/10/24 00:27:44;;;;;;;;;;;;;;;3.82;77.52;97914.34;30001;983;1880;-63
2021/10/24 00:28:18;;;;;;;;;;;;;;;3.81;78.02;97915.41;30001;982;1885;-63
2021/10/24 00:28:49;;;;;;;;;;;;;;;3.78;77.78;97905.94;30001;982;1881;-62
2021/10/24 00:29:20;;;;;;;;;;;;;;;3.79;77.86;97904.91;30001;982;1885;-61
2021/10/24 00:29:50;;;;;;;;;;;;;;;3.80;77.62;97908.41;30001;982;1868;-61
2021/10/24 00:30:21;;;;;;;;;;;;;;;3.79;77.93;97915.66;30001;982;1863;-55
2021/10/24 00:30:52;;;;;;;;;;;;;;;3.79;77.79;97906.78;30001;983;1880;-62
2021/10/24 00:31:23;;;;;;;;;;;;;;;3.81;77.81;97912.72;30001;983;1884;-61
2021/10/24 00:31:54;;;;;;;;;;;;;;;3.79;77.25;97904.91;30001;983;1880;-62
2021/10/24 00:32:25;;;;;;;;;;;;;;;3.80;77.51;97909.22;30001;983;1885;-61
2021/10/24 00:32:56;;;;;;;;;;;;;;;3.79;77.19;97910.28;30001;983;1880;-61
2021/10/24 00:33:27;;;;;;;;;;;;;;;3.77;77.14;97909.69;30001;983;1885;-62
2021/10/24 00:33:59;;;;;;;;;;;;;;;3.78;77.09;97913.19;30001;983;1867;-61
2021/10/24 00:34:31;;;;;;;;;;;;;;;3.75;77.99;97906.41;30001;983;1876;-62
2021/10/24 00:35:05;;;;;;;;;;;;;;;3.75;78.19;97902.88;30001;987;1881;-63
2021/10/24 00:35:36;;;;;;;;;;;;;;;3.73;78.12;97913.84;30001;983;1885;-56
2021/10/24 00:36:06;;;;;;;;;;;;;;;3.71;77.94;97897.16;30001;982;1881;-63
2021/10/24 00:36:37;;;;;;;;;;;;;;;3.71;77.90;97902.50;30001;982;1885;-60
2021/10/24 00:37:09;;;;;;;;;;;;;;;3.70;77.93;97906.25;30001;982;1881;-60
2021/10/24 00:37:39;;;;;;;;;;;;;;;3.71;77.65;97907.88;30001;982;1885;-60
2021/10/24 00:38:10;;;;;;;;;;;;;;;3.72;77.68;97911.38;30001;982;1881;-61
2021/10/24 00:38:41;;;;;;;;;;;;;;;3.71;77.59;97910.56;30001;983;1884;-61
2021/10/24 00:39:12;;;;;;;;;;;;;;;3.70;77.92;97906.25;30001;983;1867;-61
2021/10/24 00:39:43;;;;;;;;;;;;;;;3.68;78.05;97902.97;30001;983;1876;-61
2021/10/24 00:40:14;;;;;;;;;;;;;;;3.67;78.26;97906.69;30001;983;1880;-61
2021/10/24 00:40:44;;;;;;;;;;;;;;;3.67;78.14;97912.06;30001;983;1872;-62
2021/10/24 00:41:16;;;;;;;;;;;;;;;3.66;78.14;97899.69;30001;983;1872;-63
2021/10/24 00:41:46;;;;;;;;;;;;;;;3.66;78.17;97905.03;30001;983;1885;-62
2021/10/24 00:42:17;;;;;;;;;;;;;;;3.64;78.01;97902.59;30001;983;1880;-62
2021/10/24 00:42:50;;;;;;;;;;;;;;;3.65;77.89;97903.41;30001;983;1885;-60
2021/10/24 00:43:21;;;;;;;;;;;;;;;3.65;77.69;97900.72;30001;982;1881;-61
2021/10/24 00:43:52;;;;;;;;;;;;;;;3.67;77.56;97906.69;30001;982;1885;-62
2021/10/24 00:44:27;;;;;;;;;;;;;;;3.65;77.45;97896.19;30001;986;1871;-62
2021/10/24 00:44:59;;;;;;;;;;;;;;;3.65;77.66;97903.41;30001;982;1885;-62
2021/10/24 00:45:30;;;;;;;;;;;;;;;3.61;77.56;97902.22;30001;982;1881;-63
2021/10/24 00:46:01;;;;;;;;;;;;;;;3.60;77.53;97900.56;30001;983;1872;-63
2021/10/24 00:46:31;;;;;;;;;;;;;;;3.57;77.83;97892.97;30001;983;1871;-63
2021/10/24 00:47:05;;;;;;;;;;;;;;;3.55;77.77;97903.09;30001;983;1884;-63
2021/10/24 00:47:36;;;;;;;;;;;;;;;3.55;77.66;97903.09;30001;983;1880;-62
2021/10/24 00:48:07;;;;;;;;;;;;;;;3.56;77.71;97902.06;30001;983;1872;-63
2021/10/24 00:48:38;;;;;;;;;;;;;;;3.58;77.89;97902.66;30001;983;1872;-63
2021/10/24 00:49:09;;;;;;;;;;;;;;;3.60;78.01;97900.56;30001;983;1885;-62
2021/10/24 00:49:40;;;;;;;;;;;;;;;3.57;77.70;97906.38;30001;983;1880;-62
2021/10/24 00:50:11;;;;;;;;;;;;;;;3.55;77.85;97901.22;30001;982;1885;-60
2021/10/24 00:50:42;;;;;;;;;;;;;;;3.55;77.94;97901.22;30001;982;1880;-61
2021/10/24 00:51:15;;;;;;;;;;;;;;;3.56;77.80;97902.06;30001;982;1872;-55
2021/10/24 00:51:46;;;;;;;;;;;;;;;3.54;77.80;97899.59;30001;982;1872;-61
2021/10/24 00:52:17;;;;;;;;;;;;;;;3.54;77.85;97898.78;30001;962;1905;-61
2021/10/24 00:52:49;;;;;;;;;;;;;;;3.52;77.84;97898.19;30001;982;1881;-61
2021/10/24 00:53:20;;;;;;;;;;;;;;;3.51;77.76;97899.22;30001;983;1884;-63
2021/10/24 00:53:51;;;;;;;;;;;;;;;3.51;77.96;97897.34;30001;962;1788;-61
2021/10/24 00:54:23;;;;;;;;;;;;;;;3.51;77.97;97896.53;30001;983;1876;-60
2021/10/24 00:54:53;;;;;;;;;;;;;;;3.49;78.09;97891.38;30001;983;1880;-62
2021/10/24 00:55:25;;;;;;;;;;;;;;;3.49;78.02;97888.72;30001;983;1885;-61
2021/10/24 00:55:56;;;;;;;;;;;;;;;3.48;77.99;97891.63;30001;983;1881;-60
2021/10/24 00:56:27;;;;;;;;;;;;;;;3.48;78.03;97896.97;30001;961;1907;-63
2021/10/24 00:57:00;;;;;;;;;;;;;;;3.47;78.15;97888.09;30001;983;1881;-62
2021/10/24 00:57:31;;;;;;;;;;;;;;;3.48;77.80;97886.25;30001;982;1885;-62
2021/10/24 00:58:02;;;;;;;;;;;;;;;3.46;78.18;97888.38;30001;982;1881;-55
2021/10/24 00:58:34;;;;;;;;;;;;;;;3.45;78.16;97889.41;30001;982;1885;-61
2021/10/24 00:59:04;;;;;;;;;;;;;;;3.46;78.32;97888.38;30001;982;1868;-56
2021/10/24 00:59:37;;;;;;;;;;;;;;;3.46;78.18;97885.69;30001;982;1876;-62
2021/10/24 01:00:09;;;;;;;;;;;;;;;3.44;78.04;97890.44;30001;982;1881;-62
2021/10/24 01:00:40;;;;;;;;;;;;;;;3.42;78.15;97887.16;30001;982;1886;-55
2021/10/24 01:01:11;;;;;;;;;;;;;;;3.41;78.01;97885.53;30001;983;1880;-55
2021/10/24 01:01:42;;;;;;;;;;;;;;;3.39;78.43;97892.97;30001;983;1885;-60
2021/10/24 01:02:13;;;;;;;;;;;;;;;3.33;78.54;97884.75;30001;983;1880;-62
2021/10/24 01:02:45;;;;;;;;;;;;;;;3.32;78.25;97883.13;30001;983;1885;-61
2021/10/24 01:03:16;;;;;;;;;;;;;;;3.29;78.75;97883.56;30001;983;1880;-61
2021/10/24 01:03:47;;;;;;;;;;;;;;;3.29;78.50;97891.63;30001;983;1872;-60
2021/10/24 01:04:19;;;;;;;;;;;;;;;3.28;78.63;97887.28;30001;983;1872;-62
2021/10/24 01:04:50;;;;;;;;;;;;;;;3.30;78.64;97885.22;30001;983;1872;-62
2021/10/24 01:05:24;;;;;;;;;;;;;;;3.31;78.70;97886.84;30001;982;1872;-62
2021/10/24 01:05:59;;;;;;;;;;;;;;;3.30;78.74;97890.56;30001;982;1885;-61
2021/10/24 01:06:34;;;;;;;;;;;;;;;3.29;78.48;97888.94;30001;982;1881;-63
2021/10/24 01:07:05;;;;;;;;;;;;;;;3.28;78.61;97887.28;30001;982;1872;-63
2021/10/24 01:07:37;;;;;;;;;;;;;;;3.27;78.53;97887.50;30001;982;1872;-62
2021/10/24 01:08:09;;;;;;;;;;;;;;;3.25;78.81;97887.72;30001;982;1885;-61
2021/10/24 01:08:40;;;;;;;;;;;;;;;3.24;78.69;97886.09;30001;983;1880;-62
2021/10/24 01:09:13;;;;;;;;;;;;;;;3.23;79.06;97889.00;30001;983;1884;-62
2021/10/24 01:09:45;;;;;;;;;;;;;;;3.23;78.85;97889.81;30001;983;1880;-61
2021/10/24 01:10:17;;;;;;;;;;;;;;;3.21;78.89;97881.16;30001;983;1885;-62
2021/10/24 01:10:48;;;;;;;;;;;;;;;3.20;79.07;97884.88;30001;983;1881;-61
2021/10/24 01:11:19;;;;;;;;;;;;;;;3.20;79.08;97889.44;30001;983;1885;-56
2021/10/24 01:11:51;;;;;;;;;;;;;;;3.21;78.92;97893.75;30001;983;1868;-62
2021/10/24 01:12:22;;;;;;;;;;;;;;;3.21;79.14;97891.06;30001;983;1876;-62
2021/10/24 01:12:53;;;;;;;;;;;;;;;3.21;79.04;97885.72;30001;982;1880;-61
2021/10/24 01:13:24;;;;;;;;;;;;;;;3.21;79.24;97888.38;30001;982;1885;-62
2021/10/24 01:13:55;;;;;;;;;;;;;;;3.19;79.48;97883.25;30001;982;1881;-62
2021/10/24 01:14:27;;;;;;;;;;;;;;;3.18;79.40;97881.59;30001;982;1885;-62
2021/10/24 01:14:58;;;;;;;;;;;;;;;3.16;79.49;97881.00;30001;982;1881;-63
2021/10/24 01:15:29;;;;;;;;;;;;;;;3.16;79.46;97883.69;30001;982;1885;-62
2021/10/24 01:16:10;;;;;;;;;;;;;;;3.16;79.36;97878.31;30001;983;1880;-62
2021/10/24 01:16:42;;;;;;;;;;;;;;;3.16;79.29;97883.69;30001;983;1871;-62
2021/10/24 01:17:13;;;;;;;;;;;;;;;3.16;79.11;97883.69;30001;983;1871;-56
2021/10/24 01:17:44;;;;;;;;;;;;;;;3.16;78.97;97872.97;30001;983;1885;-62
2021/10/24 01:18:15;;;;;;;;;;;;;;;3.14;79.05;97880.41;30001;983;1881;-62
2021/10/24 01:18:46;;;;;;;;;;;;;;;3.11;79.45;97875.50;30001;983;1885;-63
2021/10/24 01:19:18;;;;;;;;;;;;;;;3.07;79.34;97871.62;30001;983;1881;-62
2021/10/24 01:19:49;;;;;;;;;;;;;;;3.07;79.39;97874.31;30001;983;1885;-61
2021/10/24 01:20:21;;;;;;;;;;;;;;;3.08;79.39;97875.13;30001;982;1881;-61
2021/10/24 01:20:52;;;;;;;;;;;;;;;3.08;79.38;97875.13;30001;982;1872;-62
2021/10/24 01:21:23;;;;;;;;;;;;;;;3.08;79.56;97875.94;30001;982;1872;-61
2021/10/24 01:21:54;;;;;;;;;;;;;;;3.06;79.91;97872.66;30001;982;1885;-56
2021/10/24 01:22:26;;;;;;;;;;;;;;;3.06;79.89;97871.84;30001;982;1881;-62
2021/10/24 01:22:57;;;;;;;;;;;;;;;3.02;80.03;97869.59;30001;983;1884;-62
2021/10/24 01:23:28;;;;;;;;;;;;;;;3.00;79.86;97866.31;30001;986;1867;-61
2021/10/24 01:23:59;;;;;;;;;;;;;;;3.01;79.62;97872.50;30001;983;1876;-63
2021/10/24 01:24:30;;;;;;;;;;;;;;;3.01;79.88;97867.97;30001;983;1880;-62
2021/10/24 01:25:02;;;;;;;;;;;;;;;3.02;79.85;97871.47;30001;983;1885;-62
2021/10/24 01:25:32;;;;;;;;;;;;;;;3.02;79.56;97866.09;30001;983;1881;-55
2021/10/24 01:26:04;;;;;;;;;;;;;;;3.04;79.67;97866.72;30001;983;1885;-62
2021/10/24 01:26:35;;;;;;;;;;;;;;;3.04;79.58;97869.38;30001;983;1881;-62
2021/10/24 01:27:06;;;;;;;;;;;;;;;3.00;80.23;97878.91;30001;983;1885;-61
2021/10/24 01:27:37;;;;;;;;;;;;;;;2.95;80.13;97868.84;30001;983;1867;-62
2021/10/24 01:28:08;;;;;;;;;;;;;;;2.95;80.02;97870.69;30001;982;1876;-63
2021/10/24 01:28:39;;;;;;;;;;;;;;;2.96;79.73;97872.34;30001;982;1881;-61
2021/10/24 01:29:11;;;;;;;;;;;;;;;2.96;79.82;97872.34;30001;982;1885;-62
2021/10/24 01:29:42;;;;;;;;;;;;;;;2.93;80.32;97868.25;30001;982;1881;-62
2021/10/24 01:30:13;;;;;;;;;;;;;;;2.93;80.10;97872.78;30001;982;1886;-62
2021/10/24 01:30:44;;;;;;;;;;;;;;;2.92;80.67;97871.12;30001;983;1880;-62
2021/10/24 01:31:15;;;;;;;;;;;;;;;2.89;80.55;97867.03;30001;983;1884;-61
2021/10/24 01:31:45;;;;;;;;;;;;;;;2.90;80.18;97867.84;30001;983;1880;-62
2021/10/24 01:32:16;;;;;;;;;;;;;;;2.93;80.18;97867.41;30001;983;1885;-63
2021/10/24 01:32:47;;;;;;;;;;;;;;;2.94;80.33;97869.06;30001;983;1867;-62
2021/10/24 01:33:19;;;;;;;;;;;;;;;2.94;80.20;97874.41;30001;983;1876;-62
2021/10/24 01:33:50;;;;;;;;;;;;;;;2.93;80.21;97867.41;30001;983;1880;-56
2021/10/24 01:34:21;;;;;;;;;;;;;;;2.93;79.85;97867.41;30001;983;1884;-62
2021/10/24 01:34:52;;;;;;;;;;;;;;;2.93;80.24;97867.41;30001;983;1858;-62
2021/10/24 01:35:23;;;;;;;;;;;;;;;2.93;80.17;97867.41;30001;982;1885;-62
2021/10/24 01:35:58;;;;;;;;;;;;;;;2.90;80.01;97862.50;30001;982;1881;-61
2021/10/24 01:36:29;;;;;;;;;;;;;;;2.91;80.02;97866.81;30001;982;1885;-62
2021/10/24 01:37:00;;;;;;;;;;;;;;;2.89;80.39;97872.41;30001;982;1881;-62
2021/10/24 01:37:35;;;;;;;;;;;;;;;2.89;80.53;97866.22;30001;982;1885;-62
2021/10/24 01:38:06;;;;;;;;;;;;;;;2.87;80.82;97860.25;30001;983;1867;-61
2021/10/24 01:38:38;;;;;;;;;;;;;;;2.83;81.03;97862.53;30001;983;1876;-63
2021/10/24 01:39:09;;;;;;;;;;;;;;;2.79;81.16;97864.03;30001;983;1880;-63
2021/10/24 01:39:39;;;;;;;;;;;;;;;2.79;80.94;97855.97;30001;983;1884;-62
2021/10/24 01:40:15;;;;;;;;;;;;;;;2.81;80.48;97861.13;30001;983;1880;-62
2021/10/24 01:40:46;;;;;;;;;;;;;;;2.80;80.91;97857.63;30001;983;1871;-62
2021/10/24 01:41:24;;;;;;;;;;;;;;;2.79;80.73;97857.84;30001;983;1872;-56
2021/10/24 01:41:55;;;;;;;;;;;;;;;2.78;80.75;97859.69;30001;983;1885;-61
2021/10/24 01:42:26;;;;;;;;;;;;;;;2.75;80.71;97854.81;30001;983;1881;-62
2021/10/24 01:42:57;;;;;;;;;;;;;;;2.77;80.71;97851.91;30001;982;1885;-62
2021/10/24 01:43:28;;;;;;;;;;;;;;;2.76;80.76;97859.13;30001;982;1881;-56
2021/10/24 01:44:00;;;;;;;;;;;;;;;2.76;80.94;97852.94;30001;982;1885;-62
2021/10/24 01:44:31;;;;;;;;;;;;;;;2.76;80.49;97856.44;30001;982;1881;-61
2021/10/24 01:45:08;;;;;;;;;;;;;;;2.77;80.72;97851.91;30001;982;1886;-63
2021/10/24 01:45:40;;;;;;;;;;;;;;;2.77;80.76;97857.28;30001;983;1880;-62
2021/10/24 01:46:10;;;;;;;;;;;;;;;2.79;80.59;97863.22;30001;983;1871;-62
2021/10/24 01:46:41;;;;;;;;;;;;;;;2.78;80.51;97858.87;30001;983;1871;-62
2021/10/24 01:47:12;;;;;;;;;;;;;;;2.78;80.66;97857.03;30001;983;1885;-61
2021/10/24 01:47:43;;;;;;;;;;;;;;;2.78;80.38;97853.53;30001;983;1880;-61
2021/10/24 01:48:16;;;;;;;;;;;;;;;2.77;80.60;97851.91;30001;983;1885;-62
2021/10/24 01:48:48;;;;;;;;;;;;;;;2.76;80.67;97855.62;30001;983;1880;-63
2021/10/24 01:49:18;;;;;;;;;;;;;;;2.75;80.61;97856.66;30001;983;1885;-61
2021/10/24 01:49:49;;;;;;;;;;;;;;;2.75;80.88;97854.00;30001;983;1868;-62
2021/10/24 01:50:20;;;;;;;;;;;;;;;2.76;80.77;97855.62;30001;983;1877;-62
2021/10/24 01:50:52;;;;;;;;;;;;;;;2.75;80.67;97848.62;30001;982;1881;-61
2021/10/24 01:51:22;;;;;;;;;;;;;;;2.74;80.90;97855.03;30001;982;1885;-61
2021/10/24 01:51:53;;;;;;;;;;;;;;;2.72;80.69;97844.53;30001;982;1868;-63
2021/10/24 01:52:24;;;;;;;;;;;;;;;2.72;80.82;97849.88;30001;982;1877;-61
2021/10/24 01:52:55;;;;;;;;;;;;;;;2.72;80.68;97843.72;30001;983;1847;-61
2021/10/24 01:53:27;;;;;;;;;;;;;;;2.72;80.74;97849.06;30001;983;1884;-61
2021/10/24 01:53:58;;;;;;;;;;;;;;;2.72;80.86;97843.72;30001;983;1867;-62
2021/10/24 01:54:29;;;;;;;;;;;;;;;2.71;80.60;97845.56;30001;983;1876;-61
2021/10/24 01:55:00;;;;;;;;;;;;;;;2.72;80.94;97849.06;30001;983;1881;-61
2021/10/24 01:55:31;;;;;;;;;;;;;;;2.72;80.82;97841.84;30001;983;1872;-62
2021/10/24 01:56:03;;;;;;;;;;;;;;;2.71;80.78;97842.88;30001;983;1872;-63
2021/10/24 01:56:35;;;;;;;;;;;;;;;2.71;80.98;97839.38;30001;983;1885;-62
2021/10/24 01:57:05;;;;;;;;;;;;;;;2.68;80.97;97836.09;30001;982;1881;-62
2021/10/24 01:57:36;;;;;;;;;;;;;;;2.68;81.30;97843.31;30001;982;1885;-61
2021/10/24 01:58:07;;;;;;;;;;;;;;;2.68;81.23;97837.97;30001;982;1881;-56
2021/10/24 01:58:38;;;;;;;;;;;;;;;2.67;81.64;97839.00;30001;982;1885;-62
2021/10/24 01:59:09;;;;;;;;;;;;;;;2.66;81.30;97840.84;30001;982;1881;-63
2021/10/24 01:59:40;;;;;;;;;;;;;;;2.66;81.38;97832.81;30001;982;1872;-62
2021/10/24 02:00:13;;;;;;;;;;;;;;;2.68;81.26;97837.97;30001;982;1872;-61
2021/10/24 02:00:44;;;;;;;;;;;;;;;2.66;81.12;97838.19;30001;983;1885;-62
2021/10/24 02:01:15;;;;;;;;;;;;;;;2.66;81.00;97840.84;30001;983;1880;-62
2021/10/24 02:01:46;;;;;;;;;;;;;;;2.66;81.23;97834.69;30001;983;1885;-61
2021/10/24 02:02:17;;;;;;;;;;;;;;;2.65;81.34;97839.22;30001;983;1880;-62
2021/10/24 02:02:48;;;;;;;;;;;;;;;2.66;81.14;97834.69;30001;983;1885;-63
2021/10/24 02:03:19;;;;;;;;;;;;;;;2.63;81.34;97838.63;30001;983;1867;-62
2021/10/24 02:03:50;;;;;;;;;;;;;;;2.63;81.38;97835.94;30001;983;1876;-61
2021/10/24 02:04:20;;;;;;;;;;;;;;;2.65;81.36;97830.34;30001;983;1881;-56
2021/10/24 02:04:51;;;;;;;;;;;;;;;2.66;81.37;97840.03;30001;982;1885;-62
2021/10/24 02:05:22;;;;;;;;;;;;;;;2.65;81.20;97839.22;30001;982;1881;-62
2021/10/24 02:05:53;;;;;;;;;;;;;;;2.67;81.04;97836.31;30001;982;1885;-62
2021/10/24 02:06:23;;;;;;;;;;;;;;;2.68;81.30;97838.78;30001;982;1881;-62
2021/10/24 02:06:54;;;;;;;;;;;;;;;2.71;80.92;97834.03;30001;982;1872;-62
2021/10/24 02:07:25;;;;;;;;;;;;;;;2.70;81.35;97835.87;30001;982;1872;-62
2021/10/24 02:07:56;;;;;;;;;;;;;;;2.71;81.28;97831.34;30001;982;1885;-62
2021/10/24 02:08:26;;;;;;;;;;;;;;;2.69;80.88;97835.06;30001;983;1880;-62
2021/10/24 02:08:57;;;;;;;;;;;;;;;2.66;80.92;97830.13;30001;983;1852;-60
2021/10/24 02:09:28;;;;;;;;;;;;;;;2.67;80.85;97831.78;30001;983;1880;-61
2021/10/24 02:09:59;;;;;;;;;;;;;;;2.68;81.08;97828.06;30001;983;1885;-61
2021/10/24 02:10:30;;;;;;;;;;;;;;;2.69;81.03;97829.72;30001;983;1880;-61
2021/10/24 02:11:01;;;;;;;;;;;;;;;2.72;80.76;97830.31;30001;983;1872;-62
2021/10/24 02:11:32;;;;;;;;;;;;;;;2.73;80.82;97829.28;30001;983;1872;-62
2021/10/24 02:12:03;;;;;;;;;;;;;;;2.72;81.30;97822.28;30001;983;1885;-56
2021/10/24 02:12:34;;;;;;;;;;;;;;;2.71;81.01;97825.97;30001;982;1881;-60
2021/10/24 02:13:06;;;;;;;;;;;;;;;2.68;81.21;97828.06;30001;982;1885;-61
2021/10/24 02:13:37;;;;;;;;;;;;;;;2.68;81.05;97828.06;30001;982;1881;-61
2021/10/24 02:14:08;;;;;;;;;;;;;;;2.71;81.14;97820.63;30001;982;1885;-60
2021/10/24 02:14:39;;;;;;;;;;;;;;;2.74;81.01;97828.22;30001;982;1881;-62
2021/10/24 02:15:10;;;;;;;;;;;;;;;2.72;81.01;97822.28;30001;982;1885;-61
2021/10/24 02:15:41;;;;;;;;;;;;;;;2.70;81.07;97830.53;30001;983;1880;-62
2021/10/24 02:16:12;;;;;;;;;;;;;;;2.69;80.84;97824.34;30001;983;1871;-62
2021/10/24 02:16:43;;;;;;;;;;;;;;;2.69;81.03;97827.03;30001;983;1871;-62
2021/10/24 02:17:14;;;;;;;;;;;;;;;2.73;80.91;97821.22;30001;983;1885;-62
2021/10/24 02:17:44;;;;;;;;;;;;;;;2.71;80.92;97817.94;30001;983;1880;-62
2021/10/24 02:18:15;;;;;;;;;;;;;;;2.71;81.35;97820.63;30001;983;1885;-61
2021/10/24 02:18:46;;;;;;;;;;;;;;;2.69;81.08;97812.81;30001;983;1867;-62
2021/10/24 02:19:17;;;;;;;;;;;;;;;2.67;80.99;97815.72;30001;983;1876;-61
2021/10/24 02:19:47;;;;;;;;;;;;;;;2.67;81.13;97810.34;30001;982;1881;-62
2021/10/24 02:20:18;;;;;;;;;;;;;;;2.69;81.20;97813.63;30001;982;1885;-62
2021/10/24 02:20:49;;;;;;;;;;;;;;;2.71;81.20;97816.09;30001;982;1881;-62
2021/10/24 02:21:20;;;;;;;;;;;;;;;2.72;81.23;97812.38;30001;982;1885;-61
2021/10/24 02:21:51;;;;;;;;;;;;;;;2.71;81.12;97812.59;30001;982;1881;-62
2021/10/24 02:22:21;;;;;;;;;;;;;;;2.71;81.05;97816.09;30001;982;1885;-61
2021/10/24 02:22:52;;;;;;;;;;;;;;;2.72;81.01;97812.38;30001;982;1881;-62
2021/10/24 02:23:23;;;;;;;;;;;;;;;2.74;80.89;97814.84;30001;983;1871;-61
2021/10/24 02:23:54;;;;;;;;;;;;;;;2.76;80.94;97812.75;30001;983;1872;-61
2021/10/24 02:24:25;;;;;;;;;;;;;;;2.76;81.00;97808.22;30001;983;1885;-62
2021/10/24 02:24:55;;;;;;;;;;;;;;;2.76;81.07;97810.06;30001;983;1881;-62
2021/10/24 02:25:26;;;;;;;;;;;;;;;2.76;80.95;97808.22;30001;983;1885;-60
2021/10/24 02:25:57;;;;;;;;;;;;;;;2.75;80.57;97803.06;30001;983;1880;-62
2021/10/24 02:26:28;;;;;;;;;;;;;;;2.77;80.97;97811.72;30001;983;1885;-62
2021/10/24 02:26:59;;;;;;;;;;;;;;;2.76;80.55;97813.56;30001;983;1867;-63
2021/10/24 02:27:30;;;;;;;;;;;;;;;2.78;80.76;97816.81;30001;982;1876;-62
2021/10/24 02:28:01;;;;;;;;;;;;;;;2.80;80.84;97814.75;30001;982;1881;-61
2021/10/24 02:28:31;;;;;;;;;;;;;;;2.81;80.72;97812.87;30001;982;1885;-61
2021/10/24 02:29:02;;;;;;;;;;;;;;;2.83;80.43;97813.47;30001;982;1881;-62
2021/10/24 02:29:33;;;;;;;;;;;;;;;2.81;80.68;97812.87;30001;982;1885;-61
2021/10/24 02:30:05;;;;;;;;;;;;;;;2.80;80.42;97811.25;30001;983;1880;-62
2021/10/24 02:30:36;;;;;;;;;;;;;;;2.79;80.99;97813.09;30001;983;1884;-62
2021/10/24 02:31:07;;;;;;;;;;;;;;;2.79;80.69;97807.75;30001;983;1867;-62
2021/10/24 02:31:38;;;;;;;;;;;;;;;2.82;80.66;97811.84;30001;983;1876;-62
2021/10/24 02:32:09;;;;;;;;;;;;;;;2.82;80.74;97809.16;30001;983;1880;-61
2021/10/24 02:32:40;;;;;;;;;;;;;;;2.83;80.61;97813.47;30001;983;1885;-64
2021/10/24 02:33:11;;;;;;;;;;;;;;;2.81;80.50;97810.19;30001;983;1880;-62
2021/10/24 02:33:42;;;;;;;;;;;;;;;2.80;80.78;97812.06;30001;983;1885;-61
2021/10/24 02:34:13;;;;;;;;;;;;;;;2.81;80.85;97811.03;30001;983;1881;-61
2021/10/24 02:34:44;;;;;;;;;;;;;;;2.81;80.55;97811.03;30001;983;1885;-62
2021/10/24 02:35:15;;;;;;;;;;;;;;;2.79;80.62;97806.91;30001;971;1900;-60
2021/10/24 02:35:45;;;;;;;;;;;;;;;2.77;80.73;97817.06;30001;982;1868;-62
2021/10/24 02:36:16;;;;;;;;;;;;;;;2.75;80.92;97806.56;30001;982;1868;-62
2021/10/24 02:36:47;;;;;;;;;;;;;;;2.75;81.09;97811.94;30001;982;1881;-62
2021/10/24 02:37:18;;;;;;;;;;;;;;;2.76;80.89;97808.22;30001;982;1877;-61
2021/10/24 02:37:48;;;;;;;;;;;;;;;2.74;81.01;97814.84;30001;975;1900;-61
2021/10/24 02:38:20;;;;;;;;;;;;;;;2.66;80.89;97806.03;30001;983;1876;-62
2021/10/24 02:38:51;;;;;;;;;;;;;;;2.62;81.71;97807.50;30001;983;1880;-62
2021/10/24 02:39:22;;;;;;;;;;;;;;;2.60;81.43;97804.22;30001;983;1876;-62
2021/10/24 02:39:53;;;;;;;;;;;;;;;2.61;81.64;97805.84;30001;983;1880;-62
2021/10/24 02:40:24;;;;;;;;;;;;;;;2.64;81.46;97804.59;30001;983;1863;-60
2021/10/24 02:40:54;;;;;;;;;;;;;;;2.66;81.27;97808.72;30001;983;1872;-60
2021/10/24 02:41:25;;;;;;;;;;;;;;;2.67;81.26;97810.34;30001;983;1876;-62
2021/10/24 02:41:56;;;;;;;;;;;;;;;2.71;81.20;97809.91;30001;964;1807;-62
2021/10/24 02:42:27;;;;;;;;;;;;;;;2.72;81.02;97807.00;30001;982;1863;-60
2021/10/24 02:42:58;;;;;;;;;;;;;;;2.73;81.03;97813.19;30001;982;1872;-61
2021/10/24 02:43:29;;;;;;;;;;;;;;;2.73;80.93;97808.66;30001;982;1877;-62
2021/10/24 02:44:00;;;;;;;;;;;;;;;2.73;81.08;97805.97;30001;982;1881;-62
2021/10/24 02:44:31;;;;;;;;;;;;;;;2.72;80.87;97808.88;30001;982;1789;-62
2021/10/24 02:45:03;;;;;;;;;;;;;;;2.73;81.12;97813.19;30001;983;1880;-62
2021/10/24 02:45:36;;;;;;;;;;;;;;;2.74;80.94;97809.47;30001;983;1876;-61
2021/10/24 02:46:07;;;;;;;;;;;;;;;2.73;81.16;97808.66;30001;983;1880;-63
2021/10/24 02:46:37;;;;;;;;;;;;;;;2.73;80.88;97810.50;30001;983;1876;-61
2021/10/24 02:47:08;;;;;;;;;;;;;;;2.74;81.09;97806.78;30001;983;1880;-62
2021/10/24 02:47:40;;;;;;;;;;;;;;;2.72;81.19;97804.31;30001;983;1863;-61
2021/10/24 02:48:10;;;;;;;;;;;;;;;2.75;81.21;97803.06;30001;983;1872;-62
2021/10/24 02:48:41;;;;;;;;;;;;;;;2.76;80.91;97800.16;30001;983;1876;-61
2021/10/24 02:49:12;;;;;;;;;;;;;;;2.77;81.00;97803.66;30001;983;1880;-63